createdAt,value
2022-11-12T00:02:21.019Z,71.60
2022-11-12T00:05:06.544Z,71.70
2022-11-12T00:07:51.944Z,71.80
2022-11-12T00:10:37.181Z,71.80
2022-11-12T00:13:22.415Z,71.80
2022-11-12T00:16:08.202Z,71.80
2022-11-12T00:18:53.221Z,72.00
2022-11-12T00:21:38.558Z,71.90
2022-11-12T00:24:23.991Z,71.90
2022-11-12T00:27:09.266Z,72.00
2022-11-12T00:29:54.714Z,72.80
2022-11-12T00:32:39.958Z,71.90
2022-11-12T00:35:25.463Z,71.80
2022-11-12T00:38:10.678Z,71.90
2022-11-12T00:40:59.710Z,71.90
2022-11-12T00:43:45.167Z,73.70
2022-11-12T00:46:30.795Z,72.00
2022-11-12T00:49:16.201Z,72.50
2022-11-12T00:52:01.930Z,72.50
2022-11-12T00:54:47.069Z,72.00
2022-11-12T00:57:32.784Z,72.10
2022-11-12T01:00:19.351Z,72.10
2022-11-12T01:03:04.682Z,72.70
2022-11-12T01:05:50.152Z,72.00
2022-11-12T01:08:36.142Z,72.10
2022-11-12T01:11:24.384Z,72.50
2022-11-12T01:14:10.858Z,73.30
2022-11-12T01:16:55.993Z,73.20
2022-11-12T01:19:41.426Z,72.10
2022-11-12T01:22:26.651Z,72.00
2022-11-12T01:25:12.181Z,72.10
2022-11-12T01:27:58.327Z,72.00
2022-11-12T01:30:43.345Z,73.30
2022-11-12T01:33:28.725Z,71.90
2022-11-12T01:36:16.264Z,72.10
2022-11-12T01:39:01.871Z,73.20
2022-11-12T01:41:47.375Z,72.50
2022-11-12T01:44:35.341Z,72.00
2022-11-12T01:47:25.365Z,73.50
2022-11-12T01:50:33.809Z,73.90
2022-11-12T01:53:21.687Z,74.80
2022-11-12T01:56:07.785Z,73.60
2022-11-12T01:58:59.039Z,73.20
2022-11-12T02:01:44.369Z,74.10
2022-11-12T02:04:30.109Z,72.50
2022-11-12T02:07:16.264Z,72.50
2022-11-12T02:10:02.399Z,72.90
2022-11-12T02:13:08.868Z,73.30
2022-11-12T02:15:55.151Z,73.60
2022-11-12T02:18:40.301Z,72.60
2022-11-12T02:21:26.587Z,72.60
2022-11-12T02:24:11.578Z,73.10
2022-11-12T02:26:57.016Z,72.60
2022-11-12T02:29:46.381Z,72.80
2022-11-12T02:32:31.873Z,72.70
2022-11-12T02:35:17.376Z,72.80
2022-11-12T02:38:02.997Z,72.80
2022-11-12T02:40:48.333Z,72.90
2022-11-12T02:43:34.728Z,72.80
2022-11-12T02:46:20.006Z,73.10
2022-11-12T02:49:05.455Z,73.10
2022-11-12T02:51:50.939Z,73.20
2022-11-12T02:54:36.209Z,73.20
2022-11-12T02:57:21.830Z,73.30
2022-11-12T03:00:10.632Z,73.50
2022-11-12T03:02:59.175Z,74.60
2022-11-12T03:05:45.831Z,73.10
2022-11-12T03:08:30.995Z,74.10
2022-11-12T03:11:17.181Z,73.20
2022-11-12T03:14:02.903Z,74.00
2022-11-12T03:16:48.250Z,73.40
2022-11-12T03:19:33.602Z,73.20
2022-11-12T03:22:19.078Z,73.30
2022-11-12T03:25:05.617Z,73.20
2022-11-12T03:27:58.031Z,73.60
2022-11-12T03:30:44.263Z,75.10
2022-11-12T03:33:29.663Z,74.00
2022-11-12T03:36:14.750Z,73.40
2022-11-12T03:39:00.236Z,73.40
2022-11-12T03:41:45.487Z,73.50
2022-11-12T03:44:30.737Z,73.40
2022-11-12T03:47:16.110Z,73.00
2022-11-12T03:50:01.750Z,73.00
2022-11-12T03:52:48.722Z,73.00
2022-11-12T03:55:34.125Z,74.10
2022-11-12T03:58:19.404Z,73.40
2022-11-12T04:01:04.963Z,73.90
2022-11-12T04:03:50.169Z,72.90
2022-11-12T04:06:54.065Z,72.90
2022-11-12T04:09:39.521Z,72.50
2022-11-12T04:12:43.375Z,72.90
2022-11-12T04:15:28.679Z,72.50
2022-11-12T04:18:32.481Z,73.00
2022-11-12T04:21:36.121Z,73.10
2022-11-12T04:24:45.766Z,72.70
2022-11-12T04:27:33.728Z,74.10
2022-11-12T04:30:19.456Z,74.50
2022-11-12T04:33:04.541Z,73.10
2022-11-12T04:35:49.811Z,73.10
2022-11-12T04:38:35.290Z,73.30
2022-11-12T04:41:39.158Z,73.40
2022-11-12T04:44:43.204Z,73.00
2022-11-12T04:47:31.602Z,72.80
2022-11-12T04:50:18.738Z,74.40
2022-11-12T04:53:03.859Z,74.80
2022-11-12T04:55:53.275Z,73.40
2022-11-12T04:58:38.617Z,75.40
2022-11-12T05:01:23.926Z,73.50
2022-11-12T05:04:09.368Z,73.50
2022-11-12T05:06:55.972Z,73.50
2022-11-12T05:09:41.679Z,74.70
2022-11-12T05:12:27.152Z,74.10
2022-11-12T05:15:12.552Z,74.20
2022-11-12T05:17:57.838Z,73.80
2022-11-12T05:20:43.299Z,73.80
2022-11-12T05:23:28.594Z,73.90
2022-11-12T05:26:14.144Z,74.00
2022-11-12T05:28:59.465Z,74.10
2022-11-12T05:31:45.552Z,74.00
2022-11-12T05:34:30.832Z,74.60
2022-11-12T05:37:16.525Z,74.20
2022-11-12T05:40:01.790Z,74.50
2022-11-12T05:42:46.981Z,74.00
2022-11-12T05:45:32.358Z,74.00
2022-11-12T05:48:22.980Z,74.10
2022-11-12T05:51:13.606Z,73.90
2022-11-12T05:53:59.760Z,73.80
2022-11-12T05:56:45.425Z,74.40
2022-11-12T05:59:30.769Z,73.70
2022-11-12T06:02:16.381Z,73.80
2022-11-12T06:05:01.740Z,73.80
2022-11-12T06:07:47.061Z,73.70
2022-11-12T06:10:33.329Z,74.00
2022-11-12T06:13:19.479Z,75.80
2022-11-12T06:16:04.867Z,74.90
2022-11-12T06:18:50.153Z,74.30
2022-11-12T06:21:35.195Z,74.00
2022-11-12T06:24:20.610Z,73.80
2022-11-12T06:27:05.893Z,73.80
2022-11-12T06:29:51.735Z,73.80
2022-11-12T06:32:36.935Z,74.20
2022-11-12T06:35:22.376Z,73.80
2022-11-12T06:38:08.112Z,73.60
2022-11-12T06:40:53.190Z,74.00
2022-11-12T06:43:39.181Z,73.50
2022-11-12T06:46:24.498Z,73.90
2022-11-12T06:49:09.828Z,73.60
2022-11-12T06:51:55.399Z,73.80
2022-11-12T06:54:40.798Z,73.90
2022-11-12T06:57:26.211Z,74.00
2022-11-12T07:00:12.280Z,73.90
2022-11-12T07:02:57.591Z,74.10
2022-11-12T07:05:43.172Z,73.80
2022-11-12T07:08:28.860Z,74.00
2022-11-12T07:11:14.059Z,74.00
2022-11-12T07:13:59.375Z,74.20
2022-11-12T07:16:44.791Z,74.00
2022-11-12T07:19:30.129Z,73.90
2022-11-12T07:22:15.456Z,74.00
2022-11-12T07:25:00.667Z,73.80
2022-11-12T07:27:46.075Z,74.00
2022-11-12T07:30:31.634Z,73.80
2022-11-12T07:33:16.859Z,73.80
2022-11-12T07:36:05.893Z,73.90
2022-11-12T07:38:52.801Z,75.30
2022-11-12T07:41:38.280Z,74.70
2022-11-12T07:44:23.582Z,73.50
2022-11-12T07:47:09.082Z,73.60
2022-11-12T07:49:54.479Z,73.40
2022-11-12T07:52:39.950Z,73.40
2022-11-12T07:55:25.506Z,73.30
2022-11-12T07:58:10.838Z,73.60
2022-11-12T08:00:56.628Z,73.30
2022-11-12T08:03:41.729Z,73.80
2022-11-12T08:06:28.753Z,73.60
2022-11-12T08:09:14.359Z,74.10
2022-11-12T08:11:59.840Z,73.30
2022-11-12T08:14:45.222Z,73.20
2022-11-12T08:17:30.621Z,73.20
2022-11-12T08:20:16.206Z,73.10
2022-11-12T08:23:01.773Z,73.40
2022-11-12T08:25:47.224Z,73.20
2022-11-12T08:28:34.189Z,73.80
2022-11-12T08:31:22.674Z,73.80
2022-11-12T08:34:17.410Z,75.80
2022-11-12T08:37:06.675Z,72.50
2022-11-12T08:39:51.846Z,73.00
2022-11-12T08:42:37.237Z,73.00
2022-11-12T08:45:22.377Z,72.90
2022-11-12T08:48:16.630Z,73.00
2022-11-12T08:51:03.305Z,74.00
2022-11-12T08:53:48.702Z,73.90
2022-11-12T08:56:34.026Z,72.80
2022-11-12T08:59:19.498Z,73.00
2022-11-12T09:02:06.094Z,73.10
2022-11-12T09:04:51.129Z,72.90
2022-11-12T09:07:49.220Z,72.90
2022-11-12T09:10:37.594Z,72.90
2022-11-12T09:13:23.005Z,72.90
2022-11-12T09:16:10.235Z,73.20
2022-11-12T09:18:55.208Z,73.80
2022-11-12T09:21:40.679Z,72.50
2022-11-12T09:24:26.034Z,72.00
2022-11-12T09:27:11.554Z,72.00
2022-11-12T09:29:56.946Z,71.80
2022-11-12T09:32:42.094Z,71.80
2022-11-12T09:35:27.692Z,72.60
2022-11-12T09:38:15.066Z,71.40
2022-11-12T09:41:18.921Z,71.40
2022-11-12T09:44:36.975Z,70.30
2022-11-12T09:47:45.121Z,73.30
2022-11-12T09:50:36.254Z,72.90
2022-11-12T09:53:44.705Z,72.40
2022-11-12T09:56:30.488Z,72.10
2022-11-12T09:59:16.377Z,70.50
2022-11-12T10:02:29.379Z,70.70
2022-11-12T10:05:28.775Z,71.40
2022-11-12T10:08:38.809Z,71.10
2022-11-12T10:12:04.188Z,71.30
2022-11-12T10:15:45.518Z,71.60
2022-11-12T10:18:46.512Z,71.30
2022-11-12T10:21:52.913Z,70.60
2022-11-12T10:24:40.042Z,70.80
2022-11-12T10:27:32.396Z,70.00
2022-11-12T10:30:20.304Z,70.50
2022-11-12T10:33:05.416Z,69.90
2022-11-12T10:35:52.921Z,68.40
2022-11-12T10:38:41.466Z,69.40
2022-11-12T10:41:28.218Z,68.60
2022-11-12T10:44:15.065Z,68.70
2022-11-12T10:47:18.706Z,68.50
2022-11-12T10:50:19.371Z,69.50
2022-11-12T10:53:07.558Z,66.40
2022-11-12T10:56:01.951Z,67.90
2022-11-12T10:59:17.507Z,67.60
2022-11-12T11:02:03.407Z,67.80
2022-11-12T11:04:48.978Z,65.90
2022-11-12T11:07:34.875Z,65.90
2022-11-12T11:10:32.679Z,66.20
2022-11-12T11:13:26.062Z,66.90
2022-11-12T11:16:14.522Z,67.20
2022-11-12T11:19:03.907Z,66.50
2022-11-12T11:22:03.918Z,66.20
2022-11-12T11:24:58.064Z,66.70
2022-11-12T11:27:52.011Z,64.90
2022-11-12T11:30:47.134Z,63.90
2022-11-12T11:33:52.231Z,66.10
2022-11-12T11:37:05.627Z,66.10
2022-11-12T11:39:53.615Z,65.80
2022-11-12T11:43:03.758Z,65.30
2022-11-12T11:46:13.652Z,64.90
2022-11-12T11:49:23.586Z,64.70
2022-11-12T11:52:42.864Z,64.70
2022-11-12T11:55:54.690Z,64.90
2022-11-12T11:58:42.838Z,64.50
2022-11-12T12:01:51.666Z,62.00
2022-11-12T12:04:48.337Z,63.70
2022-11-12T12:08:03.333Z,64.30
2022-11-12T12:11:10.367Z,64.20
2022-11-12T12:14:16.157Z,63.20
2022-11-12T12:17:01.133Z,64.10
2022-11-12T12:19:49.122Z,62.80
2022-11-12T12:22:44.782Z,61.10
2022-11-12T12:25:34.735Z,63.20
2022-11-12T12:28:25.991Z,62.60
2022-11-12T12:31:16.246Z,62.10
2022-11-12T12:34:20.517Z,61.90
2022-11-12T12:37:11.286Z,61.60
2022-11-12T12:40:14.162Z,61.50
2022-11-12T12:43:27.964Z,60.70
2022-11-12T12:46:15.584Z,60.80
2022-11-12T12:49:01.634Z,60.00
2022-11-12T12:51:51.508Z,59.00
2022-11-12T12:54:51.818Z,58.90
2022-11-12T12:57:39.375Z,59.80
2022-11-12T13:00:26.528Z,60.00
2022-11-12T13:03:12.214Z,59.90
2022-11-12T13:06:13.209Z,59.20
2022-11-12T13:09:13.409Z,61.00
2022-11-12T13:12:04.232Z,59.00
2022-11-12T13:15:08.056Z,59.90
2022-11-12T13:17:53.653Z,61.10
2022-11-12T13:20:41.368Z,59.60
2022-11-12T13:24:04.098Z,60.20
2022-11-12T13:27:00.861Z,61.10
2022-11-12T13:29:49.196Z,60.50
2022-11-12T13:32:43.774Z,61.80
2022-11-12T13:35:35.283Z,61.00
2022-11-12T13:38:20.780Z,60.90
2022-11-12T13:41:18.185Z,59.50
2022-11-12T13:44:13.129Z,61.10
2022-11-12T13:46:58.245Z,61.10
2022-11-12T13:49:45.519Z,59.50
2022-11-12T13:52:31.049Z,59.90
2022-11-12T13:55:18.710Z,59.40
2022-11-12T13:58:03.979Z,59.60
2022-11-12T14:00:54.291Z,58.10
2022-11-12T14:03:49.164Z,58.20
2022-11-12T14:06:36.974Z,57.20
2022-11-12T14:09:40.978Z,54.60
2022-11-12T14:12:43.980Z,56.80
2022-11-12T14:15:42.439Z,56.10
2022-11-12T14:18:45.638Z,56.30
2022-11-12T14:21:31.003Z,56.20
2022-11-12T14:24:16.583Z,55.50
2022-11-12T14:27:01.933Z,55.30
2022-11-12T14:29:48.367Z,55.60
2022-11-12T14:32:44.499Z,55.60
2022-11-12T14:35:29.806Z,57.30
2022-11-12T14:38:22.910Z,56.60
2022-11-12T14:41:18.446Z,56.80
2022-11-12T14:44:13.010Z,58.10
2022-11-12T14:46:59.296Z,59.70
2022-11-12T14:49:47.776Z,59.20
2022-11-12T14:52:37.690Z,60.20
2022-11-12T14:55:27.582Z,60.90
2022-11-12T14:58:18.290Z,61.60
2022-11-12T15:02:20.614Z,62.10
2022-11-12T15:04:52.703Z,62.50
2022-11-12T15:08:04.880Z,63.10
2022-11-12T15:10:50.300Z,63.20
2022-11-12T15:13:40.179Z,61.80
2022-11-12T15:16:36.014Z,63.60
2022-11-12T15:19:26.182Z,63.60
2022-11-12T15:22:20.878Z,64.20
2022-11-12T15:25:43.002Z,65.10
2022-11-12T15:28:28.223Z,64.80
2022-11-12T15:31:21.599Z,63.90
2022-11-12T15:34:33.706Z,66.00
2022-11-12T15:37:19.091Z,66.40
2022-11-12T15:40:12.477Z,64.70
2022-11-12T15:43:01.440Z,66.60
2022-11-12T15:45:51.646Z,66.30
2022-11-12T15:48:36.884Z,67.30
2022-11-12T15:51:22.398Z,66.80
2022-11-12T15:54:07.724Z,66.00
2022-11-12T15:56:53.088Z,65.80
2022-11-12T15:59:38.497Z,66.90
2022-11-12T16:02:24.848Z,66.20
2022-11-12T16:05:14.637Z,66.20
2022-11-12T16:07:59.987Z,68.30
2022-11-12T16:10:47.059Z,66.90
2022-11-12T16:13:33.234Z,67.60
2022-11-12T16:16:18.389Z,67.50
2022-11-12T16:19:03.895Z,67.40
2022-11-12T16:21:49.114Z,67.40
2022-11-12T16:24:34.472Z,67.20
2022-11-12T16:27:20.449Z,67.50
2022-11-12T16:30:25.930Z,67.60
2022-11-12T16:33:12.621Z,69.80
2022-11-12T16:35:58.173Z,68.60
2022-11-12T16:38:44.812Z,68.00
2022-11-12T16:41:29.908Z,68.20
2022-11-12T16:44:15.734Z,68.20
2022-11-12T16:47:02.908Z,68.10
2022-11-12T16:49:48.461Z,69.40
2022-11-12T16:52:33.764Z,68.60
2022-11-12T16:55:19.936Z,68.50
2022-11-12T16:58:05.285Z,69.10
2022-11-12T17:00:50.677Z,68.70
2022-11-12T17:03:36.150Z,68.70
2022-11-12T17:06:23.133Z,68.80
2022-11-12T17:09:11.626Z,70.00
2022-11-12T17:11:56.756Z,70.40
2022-11-12T17:14:42.266Z,68.90
2022-11-12T17:17:27.984Z,69.10
2022-11-12T17:20:13.224Z,69.10
2022-11-12T17:22:58.556Z,69.30
2022-11-12T17:25:44.268Z,69.60
2022-11-12T17:28:30.423Z,69.70
2022-11-12T17:31:18.242Z,69.90
2022-11-12T17:34:06.445Z,70.50
2022-11-12T17:36:51.813Z,70.40
2022-11-12T17:39:37.037Z,69.40
2022-11-12T17:42:22.448Z,69.40
2022-11-12T17:45:08.296Z,69.30
2022-11-12T17:47:53.707Z,69.80
2022-11-12T17:50:38.982Z,69.80
2022-11-12T17:53:24.598Z,69.30
2022-11-12T17:56:11.975Z,69.50
2022-11-12T17:58:56.992Z,70.30
2022-11-12T18:01:42.608Z,69.40
2022-11-12T18:04:30.915Z,69.40
2022-11-12T18:07:16.299Z,69.40
2022-11-12T18:10:02.204Z,69.80
2022-11-12T18:12:47.397Z,69.80
2022-11-12T18:15:32.762Z,69.90
2022-11-12T18:18:19.674Z,69.80
2022-11-12T18:21:05.058Z,69.80
2022-11-12T18:23:50.707Z,69.90
2022-11-12T18:26:35.680Z,69.80
2022-11-12T18:29:20.978Z,69.90
2022-11-12T18:32:06.317Z,70.90
2022-11-12T18:34:51.853Z,70.00
2022-11-12T18:37:37.191Z,69.70
2022-11-12T18:40:23.665Z,69.80
2022-11-12T18:43:08.835Z,70.20
2022-11-12T18:45:55.978Z,69.60
2022-11-12T18:48:41.409Z,71.00
2022-11-12T18:51:26.837Z,70.20
2022-11-12T18:54:12.122Z,70.00
2022-11-12T18:56:57.670Z,70.10
2022-11-12T18:59:43.094Z,70.20
2022-11-12T19:02:28.370Z,70.20
2022-11-12T19:05:13.980Z,70.30
2022-11-12T19:07:59.332Z,70.30
2022-11-12T19:10:44.763Z,70.30
2022-11-12T19:13:31.038Z,70.30
2022-11-12T19:16:18.113Z,70.70
2022-11-12T19:19:03.200Z,71.10
2022-11-12T19:21:48.829Z,70.30
2022-11-12T19:24:33.899Z,70.30
2022-11-12T19:27:19.800Z,70.50
2022-11-12T19:30:06.799Z,70.40
2022-11-12T19:32:52.150Z,70.90
2022-11-12T19:35:40.844Z,70.50
2022-11-12T19:38:28.023Z,72.00
2022-11-12T19:41:19.405Z,71.00
2022-11-12T19:44:05.330Z,72.00
2022-11-12T19:46:50.651Z,71.10
2022-11-12T19:49:36.014Z,70.90
2022-11-12T19:52:22.290Z,70.90
2022-11-12T19:55:07.866Z,70.80
2022-11-12T19:57:53.221Z,71.10
2022-11-12T20:00:38.674Z,70.60
2022-11-12T20:03:26.148Z,70.50
2022-11-12T20:06:16.797Z,70.40
2022-11-12T20:09:03.697Z,71.50
2022-11-12T20:11:50.521Z,70.40
2022-11-12T20:14:35.523Z,70.40
2022-11-12T20:17:21.053Z,70.50
2022-11-12T20:20:09.253Z,70.50
2022-11-12T20:22:54.314Z,71.50
2022-11-12T20:25:39.591Z,70.30
2022-11-12T20:28:24.847Z,70.60
2022-11-12T20:31:22.678Z,70.50
2022-11-12T20:34:07.937Z,72.60
2022-11-12T20:36:54.765Z,70.70
2022-11-12T20:39:39.812Z,72.00
2022-11-12T20:42:25.218Z,70.80
2022-11-12T20:45:10.768Z,70.80
2022-11-12T20:47:56.301Z,71.00
2022-11-12T20:50:56.422Z,70.90
2022-11-12T20:53:53.372Z,70.80
2022-11-12T20:56:41.336Z,70.80
2022-11-12T20:59:27.803Z,70.90
2022-11-12T21:02:13.095Z,70.90
2022-11-12T21:04:58.514Z,71.00
2022-11-12T21:07:43.830Z,70.90
2022-11-12T21:10:30.415Z,70.90
2022-11-12T21:13:15.951Z,71.00
2022-11-12T21:16:01.794Z,70.90
2022-11-12T21:18:47.113Z,71.20
2022-11-12T21:21:32.382Z,71.20
2022-11-12T21:24:17.727Z,70.90
2022-11-12T21:27:02.962Z,71.20
2022-11-12T21:29:48.265Z,71.10
2022-11-12T21:32:33.673Z,71.00
2022-11-12T21:35:19.008Z,70.90
2022-11-12T21:38:04.327Z,71.10
2022-11-12T21:40:49.546Z,71.20
2022-11-12T21:43:40.538Z,71.00
2022-11-12T21:46:31.193Z,72.80
2022-11-12T21:49:16.626Z,71.80
2022-11-12T21:52:01.704Z,71.20
2022-11-12T21:54:46.894Z,71.40
2022-11-12T21:57:32.392Z,71.50
2022-11-12T22:00:40.904Z,71.40
2022-11-12T22:03:23.538Z,71.90
2022-11-12T22:06:09.381Z,71.70
2022-11-12T22:08:56.105Z,71.90
2022-11-12T22:11:41.362Z,72.40
2022-11-12T22:14:26.987Z,71.60
2022-11-12T22:17:11.979Z,71.50
2022-11-12T22:19:57.215Z,71.40
2022-11-12T22:22:42.746Z,71.10
2022-11-12T22:25:28.118Z,71.30
2022-11-12T22:28:13.434Z,71.20
2022-11-12T22:31:07.371Z,71.20
2022-11-12T22:33:53.062Z,73.50
2022-11-12T22:36:38.214Z,71.40
2022-11-12T22:39:23.399Z,71.40
2022-11-12T22:42:08.906Z,71.20
2022-11-12T22:44:54.147Z,71.20
2022-11-12T22:47:39.623Z,71.30
2022-11-12T22:50:25.118Z,71.20
2022-11-12T22:53:10.370Z,71.20
2022-11-12T22:55:55.887Z,71.10
2022-11-12T22:58:43.858Z,71.20
2022-11-12T23:01:34.570Z,72.40
2022-11-12T23:04:19.937Z,72.20
2022-11-12T23:07:05.398Z,71.40
2022-11-12T23:09:50.730Z,71.60
2022-11-12T23:12:36.076Z,71.50
2022-11-12T23:15:21.371Z,71.50
2022-11-12T23:18:06.750Z,71.70
2022-11-12T23:20:52.267Z,71.90
2022-11-12T23:23:37.882Z,72.00
2022-11-12T23:26:25.482Z,72.20
2022-11-12T23:29:11.789Z,73.10
2022-11-12T23:31:56.884Z,72.90
2022-11-12T23:34:42.382Z,72.30
2022-11-12T23:37:27.618Z,72.00
2022-11-12T23:40:12.944Z,72.00
2022-11-12T23:42:58.203Z,72.10
2022-11-12T23:45:43.634Z,72.00
2022-11-12T23:48:29.564Z,72.60
2022-11-12T23:51:20.489Z,73.20
2022-11-12T23:54:05.836Z,74.10
2022-11-12T23:56:51.166Z,72.40
2022-11-12T23:59:36.494Z,72.30
